Terminal Aerodrome Forecast
Issued by NWS Upton, NY

Home | Current Version | Previous Version | Text Only | Print | Product List | Glossary On
Versions: 1 2 3 4 5 6 7 8 9 10 11 12 13 14 15 16 17 18 19 20 21 22 23 24 25 26 27 28 29 30 31 32 33 34 35 36 37 38 39 40 41 42 43
143
FTUS41 KOKX 190531
TAFLGA
TAF
KLGA 190531Z 1906/2006 34004KT P6SM SCT020 OVC040
      TEMPO 1906/1908 BKN020
     FM191000 31006KT P6SM SCT025 BKN040
     FM191600 31007KT P6SM SCT020
     FM200200 36007KT P6SM SCT020=

USA.gov is the U.S. government's official web portal to all federal, state and local government web resources and services.